createdAt,value
2019-05-25T00:00:55.632Z,70.18
2019-05-25T00:03:26.979Z,71.01
2019-05-25T00:05:58.360Z,68.51
2019-05-25T00:08:29.713Z,68.84
2019-05-25T00:11:01.180Z,68.33
2019-05-25T00:13:32.538Z,69.96
2019-05-25T00:16:04.002Z,68.91
2019-05-25T00:18:35.368Z,68.56
2019-05-25T00:21:06.638Z,67.88
2019-05-25T00:23:38.023Z,68.25
2019-05-25T00:26:09.522Z,67.52
2019-05-25T00:28:40.914Z,67.57
2019-05-25T00:31:12.364Z,67.70
2019-05-25T00:33:43.803Z,68.21
2019-05-25T00:36:15.328Z,68.89
2019-05-25T00:38:46.773Z,70.91
2019-05-25T00:41:18.073Z,72.15
2019-05-25T00:43:49.497Z,72.38
2019-05-25T00:46:20.825Z,73.24
2019-05-25T00:48:52.215Z,73.27
2019-05-25T00:51:23.578Z,73.78
2019-05-25T00:53:54.948Z,71.85
2019-05-25T00:56:26.391Z,70.53
2019-05-25T00:58:57.847Z,69.71
2019-05-25T01:01:29.201Z,68.78
2019-05-25T01:04:00.487Z,68.38
2019-05-25T01:06:31.848Z,68.34
2019-05-25T01:09:03.667Z,67.66
2019-05-25T01:11:35.163Z,67.50
2019-05-25T01:14:07.088Z,67.49
2019-05-25T01:16:38.521Z,67.59
2019-05-25T01:19:09.802Z,67.30
2019-05-25T01:21:41.139Z,67.40
2019-05-25T01:24:12.733Z,67.56
2019-05-25T01:26:44.068Z,68.61
2019-05-25T01:29:15.508Z,68.25
2019-05-25T01:31:47.054Z,67.02
2019-05-25T01:34:18.425Z,66.93
2019-05-25T01:36:49.921Z,67.89
2019-05-25T01:39:21.354Z,69.11
2019-05-25T01:41:52.725Z,69.99
2019-05-25T01:44:24.055Z,70.87
2019-05-25T01:46:55.416Z,71.56
2019-05-25T01:49:26.663Z,71.24
2019-05-25T01:51:58.004Z,71.90
2019-05-25T01:54:29.295Z,71.82
2019-05-25T01:57:00.576Z,70.99
2019-05-25T01:59:31.978Z,70.87
2019-05-25T02:02:04.744Z,70.68
2019-05-25T02:04:36.012Z,71.11
2019-05-25T02:07:07.368Z,71.25
2019-05-25T02:09:38.678Z,71.68
2019-05-25T02:12:10.030Z,71.91
2019-05-25T02:14:41.309Z,71.32
2019-05-25T02:17:12.861Z,71.02
2019-05-25T02:19:44.261Z,70.67
2019-05-25T02:22:15.696Z,70.18
2019-05-25T02:24:46.993Z,70.48
2019-05-25T02:27:18.274Z,70.87
2019-05-25T02:29:49.564Z,70.92
2019-05-25T02:32:20.900Z,71.26
2019-05-25T02:34:52.401Z,72.16
2019-05-25T02:37:23.818Z,72.53
2019-05-25T02:39:55.152Z,72.36
2019-05-25T02:42:26.488Z,72.58
2019-05-25T02:44:57.847Z,71.82
2019-05-25T02:47:29.164Z,72.79
2019-05-25T02:50:00.432Z,71.63
2019-05-25T02:52:31.807Z,72.81
2019-05-25T02:55:03.239Z,73.84
2019-05-25T02:57:34.577Z,72.72
2019-05-25T03:00:07.937Z,72.04
2019-05-25T03:02:40.910Z,71.54
2019-05-25T03:05:15.382Z,72.00
2019-05-25T03:07:47.488Z,72.20
2019-05-25T03:10:18.931Z,72.41
2019-05-25T03:12:50.358Z,72.21
2019-05-25T03:15:22.013Z,72.21
2019-05-25T03:17:53.429Z,71.48
2019-05-25T03:20:25.371Z,71.83
2019-05-25T03:22:57.726Z,70.36
2019-05-25T03:25:29.068Z,69.28
2019-05-25T03:28:00.482Z,69.61
2019-05-25T03:30:37.881Z,69.44
2019-05-25T03:33:09.373Z,69.11
2019-05-25T03:35:40.719Z,69.23
2019-05-25T03:38:12.238Z,70.13
2019-05-25T03:40:43.632Z,70.64
2019-05-25T03:43:14.950Z,70.41
2019-05-25T03:45:46.218Z,70.31
2019-05-25T03:48:17.550Z,70.35
2019-05-25T03:50:48.923Z,69.21
2019-05-25T03:53:20.392Z,68.71
2019-05-25T03:56:04.779Z,69.87
2019-05-25T03:58:24.785Z,69.30
2019-05-25T04:00:56.214Z,69.44
2019-05-25T04:03:27.639Z,69.45
2019-05-25T04:05:58.966Z,69.48
2019-05-25T04:08:30.251Z,69.50
2019-05-25T04:11:01.538Z,69.33
2019-05-25T04:13:32.925Z,68.59
2019-05-25T04:16:04.477Z,68.23
2019-05-25T04:18:35.792Z,67.56
2019-05-25T04:21:07.204Z,67.54
2019-05-25T04:23:38.576Z,67.08
2019-05-25T04:26:22.131Z,68.49
2019-05-25T04:28:43.055Z,68.67
2019-05-25T04:31:15.503Z,68.10
2019-05-25T04:33:46.833Z,68.22
2019-05-25T04:36:18.116Z,68.35
2019-05-25T04:38:49.591Z,68.79
2019-05-25T04:41:20.961Z,68.54
2019-05-25T04:43:52.424Z,69.17
2019-05-25T04:46:23.852Z,68.45
2019-05-25T04:48:55.121Z,67.92
2019-05-25T04:51:26.501Z,67.43
2019-05-25T04:53:57.969Z,68.21
2019-05-25T04:56:38.846Z,68.02
2019-05-25T04:59:02.361Z,67.47
2019-05-25T05:01:33.894Z,67.72
2019-05-25T05:04:05.395Z,67.12
2019-05-25T05:06:36.685Z,67.43
2019-05-25T05:09:09.283Z,67.09
2019-05-25T05:11:40.631Z,67.14
2019-05-25T05:14:12.052Z,66.41
2019-05-25T05:16:43.332Z,65.91
2019-05-25T05:19:14.655Z,65.83
2019-05-25T05:21:46.071Z,65.85
2019-05-25T05:24:17.380Z,65.39
2019-05-25T05:26:55.785Z,65.25
2019-05-25T05:29:21.724Z,65.05
2019-05-25T05:31:53.341Z,65.16
2019-05-25T05:34:24.771Z,63.80
2019-05-25T05:36:56.416Z,62.58
2019-05-25T05:39:28.830Z,64.27
2019-05-25T05:42:01.566Z,62.36
2019-05-25T05:44:33.315Z,61.22
2019-05-25T05:47:10.328Z,60.57
2019-05-25T05:49:41.346Z,59.37
2019-05-25T05:52:14.842Z,59.68
2019-05-25T05:54:47.645Z,58.59
2019-05-25T05:57:19.126Z,58.85
2019-05-25T05:59:50.415Z,58.98
2019-05-25T06:02:21.941Z,58.87
2019-05-25T06:04:53.281Z,57.63
2019-05-25T06:07:27.285Z,58.24
2019-05-25T06:09:57.537Z,58.34
2019-05-25T06:12:29.021Z,58.49
2019-05-25T06:15:00.372Z,59.33
2019-05-25T06:17:36.635Z,59.71
2019-05-25T06:20:08.807Z,59.70
2019-05-25T06:22:40.238Z,60.46
2019-05-25T06:25:14.359Z,59.52
2019-05-25T06:27:45.806Z,59.44
2019-05-25T06:30:18.727Z,59.77
2019-05-25T06:32:50.326Z,59.70
2019-05-25T06:35:21.796Z,59.78
2019-05-25T06:37:53.296Z,58.56
2019-05-25T06:40:24.897Z,58.59
2019-05-25T06:42:56.254Z,58.27
2019-05-25T06:45:27.760Z,56.57
2019-05-25T06:47:59.183Z,55.56
2019-05-25T06:50:30.734Z,55.96
2019-05-25T06:53:02.128Z,54.71
2019-05-25T06:55:33.562Z,53.91
2019-05-25T06:58:05.307Z,54.68
2019-05-25T07:00:36.748Z,55.12
2019-05-25T07:03:08.298Z,54.74
2019-05-25T07:05:39.569Z,54.52
2019-05-25T07:08:10.929Z,55.21
2019-05-25T07:10:42.280Z,53.92
2019-05-25T07:13:13.706Z,54.04
2019-05-25T07:15:45.057Z,53.93
2019-05-25T07:18:16.511Z,54.02
2019-05-25T07:20:48.003Z,53.21
2019-05-25T07:23:19.512Z,52.88
2019-05-25T07:25:51.037Z,52.11
2019-05-25T07:28:22.679Z,52.13
2019-05-25T07:30:54.233Z,51.89
2019-05-25T07:33:26.044Z,51.95
2019-05-25T07:35:57.419Z,51.20
2019-05-25T07:38:29.130Z,51.27
2019-05-25T07:41:00.823Z,50.88
2019-05-25T07:43:32.268Z,50.35
2019-05-25T07:46:04.387Z,50.05
2019-05-25T07:48:36.661Z,50.95
2019-05-25T07:51:11.370Z,50.22
2019-05-25T07:53:43.103Z,51.60
2019-05-25T07:56:15.464Z,50.80
2019-05-25T07:58:47.030Z,50.99
2019-05-25T08:01:18.785Z,51.49
2019-05-25T08:03:52.757Z,50.43
2019-05-25T08:06:24.288Z,51.92
2019-05-25T08:08:58.619Z,52.47
2019-05-25T08:11:32.587Z,50.31
2019-05-25T08:14:04.016Z,48.12
2019-05-25T08:16:35.459Z,49.20
2019-05-25T08:19:08.023Z,49.44
2019-05-25T08:21:39.537Z,50.00
2019-05-25T08:24:11.417Z,49.74
2019-05-25T08:26:54.276Z,49.95
2019-05-25T08:29:25.839Z,50.67
2019-05-25T08:31:57.437Z,50.07
2019-05-25T08:34:28.832Z,50.43
2019-05-25T08:37:00.323Z,49.79
2019-05-25T08:39:31.651Z,50.19
2019-05-25T08:42:04.785Z,49.79
2019-05-25T08:44:36.670Z,50.27
2019-05-25T08:47:08.674Z,50.07
2019-05-25T08:49:40.364Z,49.39
2019-05-25T08:52:12.747Z,49.40
2019-05-25T08:54:44.280Z,50.43
2019-05-25T08:57:18.585Z,51.35
2019-05-25T08:59:49.209Z,48.89
2019-05-25T09:02:20.692Z,48.52
2019-05-25T09:04:52.230Z,47.57
2019-05-25T09:07:23.580Z,46.75
2019-05-25T09:09:54.970Z,47.32
2019-05-25T09:12:26.334Z,46.54
2019-05-25T09:14:57.751Z,45.28
2019-05-25T09:17:29.175Z,47.26
2019-05-25T09:20:00.601Z,44.35
2019-05-25T09:22:32.014Z,46.04
2019-05-25T09:25:03.910Z,45.74
2019-05-25T09:27:35.250Z,44.78
2019-05-25T09:30:09.345Z,46.06
2019-05-25T09:32:40.687Z,46.83
2019-05-25T09:35:12.564Z,43.29
2019-05-25T09:37:44.025Z,46.40
2019-05-25T09:40:15.780Z,44.13
2019-05-25T09:42:47.374Z,45.03
2019-05-25T09:45:19.853Z,45.72
2019-05-25T09:47:51.364Z,43.60
2019-05-25T09:50:22.908Z,43.95
2019-05-25T09:52:55.994Z,42.90
2019-05-25T09:55:27.604Z,43.43
2019-05-25T09:57:59.026Z,43.59
2019-05-25T10:00:31.276Z,44.43
2019-05-25T10:03:02.771Z,43.75
2019-05-25T10:05:35.394Z,43.15
2019-05-25T10:08:06.814Z,42.78
2019-05-25T10:10:40.330Z,46.03
2019-05-25T10:13:20.111Z,42.96
2019-05-25T10:20:09.698Z,42.40
2019-05-25T10:21:59.541Z,41.92
2019-05-25T10:24:38.748Z,42.10
2019-05-25T10:27:25.857Z,42.37
2019-05-25T10:29:53.298Z,45.34
2019-05-25T10:32:35.511Z,43.90
2019-05-25T10:35:08.466Z,43.27
2019-05-25T10:37:40.064Z,44.21
2019-05-25T10:40:11.686Z,43.98
2019-05-25T10:42:43.237Z,42.94
2019-05-25T10:45:22.255Z,44.07
2019-05-25T10:47:55.433Z,43.96
2019-05-25T10:50:30.487Z,44.83
2019-05-25T10:53:04.313Z,45.68
2019-05-25T10:55:36.049Z,45.53
2019-05-25T10:58:08.219Z,46.28
2019-05-25T11:00:42.162Z,45.76
2019-05-25T11:03:18.411Z,46.73
2019-05-25T11:05:55.971Z,46.54
2019-05-25T11:08:29.548Z,46.95
2019-05-25T11:11:01.135Z,47.02
2019-05-25T11:13:33.997Z,45.13
2019-05-25T11:16:05.657Z,45.20
2019-05-25T11:18:37.006Z,45.30
2019-05-25T11:21:14.278Z,44.62
2019-05-25T11:23:56.076Z,44.60
2019-05-25T11:26:27.428Z,46.72
2019-05-25T11:28:58.927Z,46.97
2019-05-25T11:31:33.357Z,45.90
2019-05-25T11:34:13.405Z,46.81
2019-05-25T11:36:47.385Z,46.72
2019-05-25T11:39:52.172Z,43.47
2019-05-25T11:42:27.433Z,45.10
2019-05-25T11:44:59.909Z,46.05
2019-05-25T11:47:37.356Z,44.27
2019-05-25T11:50:15.171Z,44.42
2019-05-25T11:52:55.368Z,44.47
2019-05-25T11:55:27.028Z,44.74
2019-05-25T11:58:08.333Z,42.27
2019-05-25T12:00:45.060Z,40.24
2019-05-25T12:03:20.943Z,41.96
2019-05-25T12:06:13.913Z,41.21
2019-05-25T12:08:45.393Z,42.98
2019-05-25T12:11:16.786Z,41.83
2019-05-25T12:13:48.529Z,43.00
2019-05-25T12:16:19.938Z,42.96
2019-05-25T12:18:51.439Z,42.51
2019-05-25T12:21:24.539Z,41.88
2019-05-25T12:23:58.050Z,42.12
2019-05-25T12:26:37.168Z,41.87
2019-05-25T12:29:13.383Z,42.46
2019-05-25T12:31:44.909Z,44.75
2019-05-25T12:34:16.711Z,40.94
2019-05-25T12:36:52.527Z,38.60
2019-05-25T12:39:26.735Z,40.14
2019-05-25T12:41:58.382Z,41.76
2019-05-25T12:44:48.428Z,42.25
2019-05-25T12:47:19.877Z,39.11
2019-05-25T12:49:51.410Z,40.49
2019-05-25T12:52:24.851Z,40.17
2019-05-25T12:54:57.878Z,38.43
2019-05-25T12:57:29.396Z,38.27
2019-05-25T13:00:14.704Z,36.56
2019-05-25T13:02:38.388Z,39.33
2019-05-25T13:05:34.181Z,34.52
2019-05-25T13:08:00.405Z,35.25
2019-05-25T13:10:37.041Z,34.64
2019-05-25T13:13:14.903Z,37.02
2019-05-25T13:15:51.232Z,36.61
2019-05-25T13:18:24.343Z,37.13
2019-05-25T13:20:56.415Z,34.62
2019-05-25T13:23:27.757Z,35.43
2019-05-25T13:25:59.146Z,36.37
2019-05-25T13:28:30.753Z,33.49
2019-05-25T13:31:11.299Z,31.54
2019-05-25T13:33:35.202Z,34.17
2019-05-25T13:36:06.657Z,31.65
2019-05-25T13:38:38.346Z,31.46
2019-05-25T13:41:11.813Z,33.84
2019-05-25T13:43:45.995Z,31.45
2019-05-25T13:46:46.980Z,32.85
2019-05-25T13:49:25.332Z,33.53
2019-05-25T13:52:19.562Z,32.63
2019-05-25T13:55:04.666Z,35.34
2019-05-25T13:57:37.796Z,32.20
2019-05-25T14:00:23.415Z,34.43
2019-05-25T14:02:59.469Z,31.96
2019-05-25T14:05:31.164Z,34.97
2019-05-25T14:08:12.132Z,32.57
2019-05-25T14:10:36.363Z,31.67
2019-05-25T14:13:09.845Z,31.71
2019-05-25T14:15:41.261Z,32.96
2019-05-25T14:18:12.947Z,28.84
2019-05-25T14:20:44.489Z,28.25
2019-05-25T14:23:17.134Z,27.76
2019-05-25T14:25:48.857Z,28.79
2019-05-25T14:28:22.168Z,26.88
2019-05-25T14:30:55.200Z,27.48
2019-05-25T14:33:26.897Z,27.51
2019-05-25T14:36:09.179Z,26.54
2019-05-25T14:38:40.856Z,26.47
2019-05-25T14:41:12.627Z,27.34
2019-05-25T14:43:44.037Z,27.53
2019-05-25T14:46:27.347Z,26.57
2019-05-25T14:48:58.927Z,27.11
2019-05-25T14:51:30.787Z,25.96
2019-05-25T14:54:02.493Z,28.81
2019-05-25T14:56:34.422Z,26.26
2019-05-25T14:59:06.415Z,28.59
2019-05-25T15:01:37.818Z,25.36
2019-05-25T15:04:09.397Z,26.47
2019-05-25T15:06:40.847Z,28.02
2019-05-25T15:09:13.957Z,27.74
2019-05-25T15:11:45.379Z,27.06
2019-05-25T15:14:16.868Z,27.10
2019-05-25T15:16:48.550Z,28.76
2019-05-25T15:19:20.204Z,29.90
2019-05-25T15:21:52.060Z,28.49
2019-05-25T15:24:23.600Z,27.95
2019-05-25T15:26:54.915Z,29.51
2019-05-25T15:29:26.708Z,28.87
2019-05-25T15:31:58.452Z,28.91
2019-05-25T15:34:33.365Z,30.14
2019-05-25T15:37:05.195Z,31.40
2019-05-25T15:39:36.540Z,30.46
2019-05-25T15:42:08.296Z,30.87
2019-05-25T15:44:42.451Z,31.76
2019-05-25T15:47:14.096Z,32.61
2019-05-25T15:49:45.504Z,32.42
2019-05-25T15:52:21.323Z,32.71
2019-05-25T15:54:57.661Z,32.63
2019-05-25T15:57:33.602Z,34.34
2019-05-25T16:00:14.004Z,33.58
2019-05-25T16:02:51.881Z,35.13
2019-05-25T16:05:25.360Z,34.67
2019-05-25T16:07:56.919Z,33.85
2019-05-25T16:10:28.399Z,36.76
2019-05-25T16:13:00.035Z,31.55
2019-05-25T16:15:31.478Z,30.40
2019-05-25T16:18:03.195Z,31.00
2019-05-25T16:20:34.527Z,30.57
2019-05-25T16:23:07.702Z,29.70
2019-05-25T16:25:39.121Z,30.68
2019-05-25T16:28:10.727Z,32.85
2019-05-25T16:30:42.158Z,32.17
2019-05-25T16:33:14.811Z,32.63
2019-05-25T16:35:46.477Z,32.63
2019-05-25T16:38:18.513Z,32.16
2019-05-25T16:40:49.854Z,33.28
2019-05-25T16:43:22.460Z,33.53
2019-05-25T16:45:56.896Z,33.82
2019-05-25T16:48:28.776Z,34.12
2019-05-25T16:51:00.164Z,34.61
2019-05-25T16:53:32.788Z,34.64
2019-05-25T16:56:04.441Z,34.68
2019-05-25T16:58:35.740Z,35.00
2019-05-25T17:01:07.118Z,34.93
2019-05-25T17:03:38.522Z,34.65
2019-05-25T17:06:10.112Z,35.12
2019-05-25T17:08:42.833Z,35.16
2019-05-25T17:11:14.234Z,35.74
2019-05-25T17:13:45.536Z,34.98
2019-05-25T17:16:17.216Z,35.28
2019-05-25T17:18:48.888Z,37.06
2019-05-25T17:21:20.546Z,36.40
2019-05-25T17:23:53.071Z,36.33
2019-05-25T17:26:24.532Z,36.26
2019-05-25T17:28:55.941Z,36.17
2019-05-25T17:31:27.301Z,36.38
2019-05-25T17:33:58.820Z,36.66
2019-05-25T17:36:30.391Z,37.21
2019-05-25T17:39:01.919Z,37.02
2019-05-25T17:41:34.287Z,38.04
2019-05-25T17:44:05.903Z,37.81
2019-05-25T17:46:37.422Z,38.06
2019-05-25T17:49:28.970Z,38.54
2019-05-25T17:52:01.983Z,38.32
2019-05-25T17:54:33.637Z,38.25
2019-05-25T17:57:06.219Z,38.27
2019-05-25T17:59:37.601Z,38.42
2019-05-25T18:02:09.010Z,38.77
2019-05-25T18:04:40.575Z,38.23
2019-05-25T18:07:12.938Z,40.01
2019-05-25T18:09:44.424Z,38.16
2019-05-25T18:12:15.964Z,38.56
2019-05-25T18:14:47.258Z,39.49
2019-05-25T18:17:19.124Z,39.86
2019-05-25T18:19:50.609Z,39.55
2019-05-25T18:22:22.259Z,40.13
2019-05-25T18:24:53.663Z,40.80
2019-05-25T18:27:25.251Z,40.63
2019-05-25T18:29:56.558Z,40.88
2019-05-25T18:32:27.856Z,41.56
2019-05-25T18:34:59.253Z,43.27
2019-05-25T18:37:30.655Z,42.58
2019-05-25T18:40:02.243Z,43.03
2019-05-25T18:42:33.732Z,43.59
2019-05-25T18:45:07.321Z,43.28
2019-05-25T18:47:38.878Z,44.62
2019-05-25T18:50:12.441Z,44.36
2019-05-25T18:52:45.985Z,44.75
2019-05-25T18:55:18.594Z,45.26
2019-05-25T18:57:53.065Z,45.14
2019-05-25T19:00:25.119Z,46.39
2019-05-25T19:02:56.916Z,47.95
2019-05-25T19:05:28.423Z,46.09
2019-05-25T19:08:00.135Z,47.51
2019-05-25T19:10:31.923Z,46.81
2019-05-25T19:13:03.431Z,46.58
2019-05-25T19:15:35.241Z,46.89
2019-05-25T19:18:07.133Z,46.86
2019-05-25T19:20:38.937Z,47.38
2019-05-25T19:23:10.702Z,47.69
2019-05-25T19:25:46.400Z,47.66
2019-05-25T19:28:19.739Z,47.02
2019-05-25T19:30:55.416Z,46.67
2019-05-25T19:33:29.638Z,46.95
2019-05-25T19:36:03.555Z,46.66
2019-05-25T19:38:36.702Z,47.10
2019-05-25T19:41:10.034Z,47.04
2019-05-25T19:43:41.932Z,46.86
2019-05-25T19:46:13.467Z,47.89
2019-05-25T19:48:44.943Z,48.69
2019-05-25T19:51:16.396Z,48.54
2019-05-25T19:53:47.783Z,47.59
2019-05-25T19:56:19.110Z,48.46
2019-05-25T19:58:50.519Z,49.12
2019-05-25T20:01:21.894Z,49.02
2019-05-25T20:03:57.191Z,49.82
2019-05-25T20:06:26.328Z,49.82
2019-05-25T20:08:57.713Z,48.90
2019-05-25T20:11:29.198Z,49.31
2019-05-25T20:14:00.616Z,48.62
2019-05-25T20:16:32.155Z,49.62
2019-05-25T20:19:03.703Z,49.74
2019-05-25T20:21:35.243Z,50.29
2019-05-25T20:24:06.692Z,49.70
2019-05-25T20:26:38.004Z,49.94
2019-05-25T20:29:09.437Z,50.34
2019-05-25T20:31:40.748Z,50.10
2019-05-25T20:34:12.139Z,49.21
2019-05-25T20:36:43.428Z,48.76
2019-05-25T20:39:15.759Z,48.27
2019-05-25T20:41:47.093Z,48.15
2019-05-25T20:44:18.614Z,47.56
2019-05-25T20:46:49.985Z,47.81
2019-05-25T20:49:21.281Z,47.50
2019-05-25T20:51:52.753Z,47.02
2019-05-25T20:54:24.061Z,47.34
2019-05-25T20:56:55.429Z,46.95
2019-05-25T20:59:26.728Z,47.01
2019-05-25T21:01:58.095Z,47.61
2019-05-25T21:04:29.455Z,46.97
2019-05-25T21:07:01.161Z,48.23
2019-05-25T21:09:32.979Z,48.05
2019-05-25T21:12:04.519Z,47.64
2019-05-25T21:14:35.974Z,47.82
2019-05-25T21:17:07.486Z,47.77
2019-05-25T21:19:38.829Z,48.37
2019-05-25T21:22:10.150Z,48.53
2019-05-25T21:24:41.415Z,49.17
2019-05-25T21:27:12.942Z,48.24
2019-05-25T21:29:44.401Z,47.94
2019-05-25T21:32:15.771Z,48.34
2019-05-25T21:34:47.132Z,48.97
2019-05-25T21:37:19.591Z,49.26
2019-05-25T21:39:51.739Z,49.29
2019-05-25T21:42:23.227Z,48.88
2019-05-25T21:44:54.642Z,49.44
2019-05-25T21:47:26.360Z,49.89
2019-05-25T21:49:57.810Z,51.07
2019-05-25T21:52:29.203Z,49.39
2019-05-25T21:55:01.609Z,49.04
2019-05-25T21:57:33.223Z,49.45
2019-05-25T22:00:11.808Z,48.97
2019-05-25T22:02:44.675Z,48.95
2019-05-25T22:05:17.064Z,48.85
2019-05-25T22:07:48.473Z,48.85
2019-05-25T22:10:19.943Z,48.51
2019-05-25T22:12:51.344Z,48.91
2019-05-25T22:15:22.836Z,49.44
2019-05-25T22:17:54.551Z,48.78
2019-05-25T22:20:26.023Z,50.00
2019-05-25T22:22:59.059Z,49.50
2019-05-25T22:25:30.513Z,50.83
2019-05-25T22:28:01.887Z,50.89
2019-05-25T22:30:33.375Z,50.50
2019-05-25T22:33:04.662Z,51.05
2019-05-25T22:35:36.428Z,51.56
2019-05-25T22:38:07.848Z,51.62
2019-05-25T22:40:39.406Z,52.11
2019-05-25T22:43:10.740Z,52.64
2019-05-25T22:45:42.172Z,52.03
2019-05-25T22:48:13.551Z,52.78
2019-05-25T22:50:46.049Z,53.29
2019-05-25T22:53:17.574Z,53.42
2019-05-25T22:55:49.065Z,53.56
2019-05-25T22:58:20.628Z,53.98
2019-05-25T23:00:52.151Z,53.63
2019-05-25T23:03:24.632Z,54.58
2019-05-25T23:05:55.952Z,53.97
2019-05-25T23:08:27.539Z,54.10
2019-05-25T23:10:58.909Z,55.68
2019-05-25T23:13:30.214Z,56.17
2019-05-25T23:16:01.713Z,53.65
2019-05-25T23:18:33.188Z,54.98
2019-05-25T23:21:05.019Z,54.32
2019-05-25T23:23:36.486Z,54.63
2019-05-25T23:26:08.067Z,55.20
2019-05-25T23:28:40.240Z,54.55
2019-05-25T23:31:12.036Z,54.85
2019-05-25T23:33:43.659Z,54.93
2019-05-25T23:36:15.308Z,54.92
2019-05-25T23:38:46.901Z,55.38
2019-05-25T23:41:18.423Z,55.65
2019-05-25T23:43:52.523Z,56.12
2019-05-25T23:46:24.167Z,57.37
2019-05-25T23:48:55.533Z,56.02
2019-05-25T23:51:26.882Z,56.02
2019-05-25T23:53:58.245Z,56.73
2019-05-25T23:56:29.613Z,56.45
2019-05-25T23:59:01.187Z,56.67
